Time;durP1;ratioP1;P1;durP2;ratioP2;P2;SDS_P1;SDS_P2;PMS_P1;PMS_P2;Temp;Humidity;BMP_temperature;BMP_pressure;BME280_temperature;BME280_humidity;BME280_pressure;Samples;Min_cycle;Max_cycle;Signal;HPM_P1;HPM_P2
2023/01/15 00:01:34;;;;;;;;;;;;;;;;;;5073831;28;20331;-74
2023/01/15 00:04:00;;;;;;;;;;;;;;;;;;5075318;28;20389;-75
2023/01/15 00:06:25;;;;;;;;;;;;;;;;;;5073935;28;20356;-75
2023/01/15 00:08:51;;;;;;;;;;;;;;;;;;5075011;28;19920;-75
2023/01/15 00:11:17;;;;;;;;;;;;;;;;;;5075155;28;19908;-76
2023/01/15 00:13:43;;;;;;;;;;;;;;;;;;5075019;28;19916;-75
2023/01/15 00:16:09;;;;;;;;;;;;;;;;;;5074901;28;19909;-75
2023/01/15 00:18:35;;;;;;;;;;;;;;;;;;5075261;28;19909;-75
2023/01/15 00:21:01;;;;;;;;;;;;;;;;;;5074707;28;19977;-75
2023/01/15 00:28:56;;;;;;;;;;;;;;;;;;5074525;28;19915;-76
2023/01/15 00:31:22;;;;;;;;;;;;;;;;;;5074552;28;19908;-76
2023/01/15 00:33:48;;;;;;;;;;;;;;;;;;5074584;28;19998;-75
2023/01/15 00:36:14;;;;;;;;;;;;;;;;;;5074256;28;19920;-74
2023/01/15 00:38:40;;;;;;;;;;;;;;;;;;5074461;28;19909;-76
2023/01/15 00:41:06;;;;;;;;;;;;;;;;;;5074448;28;19912;-75
2023/01/15 00:43:32;;;;;;;;;;;;;;;;;;5074385;28;19919;-75
2023/01/15 00:45:58;;;;;;;;;;;;;;;;;;5074291;28;20257;-76
2023/01/15 00:48:24;;;;;;;;;;;;;;;;;;5074665;28;20348;-75
2023/01/15 00:50:50;;;;;;;;;;;;;;;;;;5074227;28;19915;-76
2023/01/15 00:53:16;;;;;;;;;;;;;;;;;;5074191;28;19916;-76
2023/01/15 00:55:41;;;;;;;;;;;;;;;;;;5074130;28;19913;-75
2023/01/15 00:58:07;;;;;;;;;;;;;;;;;;5074116;28;19908;-74
2023/01/15 01:00:33;;;;;;;;;;;;;;;;;;5074111;28;19936;-75
2023/01/15 01:02:59;;;;;;;;;;;;;;;;;;5074052;28;20364;-75
2023/01/15 01:05:25;;;;;;;;;;;;;;;;;;5074034;28;20372;-75
2023/01/15 01:07:51;;;;;;;;;;;;;;;;;;5073982;28;19909;-76
2023/01/15 01:10:17;;;;;;;;;;;;;;;;;;5074283;28;19958;-75
2023/01/15 01:12:43;;;;;;;;;;;;;;;;;;5074155;28;19915;-76
2023/01/15 01:15:09;;;;;;;;;;;;;;;;;;5073933;28;19943;-76
2023/01/15 01:17:35;;;;;;;;;;;;;;;;;;5073480;28;19908;-75
2023/01/15 01:20:01;;;;;;;;;;;;;;;;;;5073911;28;19915;-75
2023/01/15 01:22:26;;;;;;;;;;;;;;;;;;5073931;28;19920;-76
2023/01/15 01:24:52;;;;;;;;;;;;;;;;;;5073803;28;19909;-75
2023/01/15 01:27:18;;;;;;;;;;;;;;;;;;5073810;28;19973;-76
2023/01/15 01:29:44;;;;;;;;;;;;;;;;;;5073735;28;20420;-74
2023/01/15 01:32:10;;;;;;;;;;;;;;;;;;5073672;28;19955;-74
2023/01/15 01:34:36;;;;;;;;;;;;;;;;;;5073544;28;19970;-75
2023/01/15 01:37:02;;;;;;;;;;;;;;;;;;5073813;28;19924;-75
2023/01/15 01:39:28;;;;;;;;;;;;;;;;;;5073679;28;19958;-75
2023/01/15 01:41:54;;;;;;;;;;;;;;;;;;5073499;28;19912;-75
2023/01/15 01:44:20;;;;;;;;;;;;;;;;;;5073619;28;19908;-75
2023/01/15 01:46:46;;;;;;;;;;;;;;;;;;5073693;28;19908;-75
2023/01/15 01:49:12;;;;;;;;;;;;;;;;;;5073556;28;19912;-76
2023/01/15 01:51:38;;;;;;;;;;;;;;;;;;5073506;28;19908;-74
2023/01/15 01:54:03;;;;;;;;;;;;;;;;;;5073417;28;19909;-74
2023/01/15 01:56:29;;;;;;;;;;;;;;;;;;5073470;28;19909;-75
2023/01/15 01:58:55;;;;;;;;;;;;;;;;;;5073510;28;19954;-75
2023/01/15 02:01:22;;;;;;;;;;;;;;;;;;5073320;28;20013;-75
2023/01/15 02:03:48;;;;;;;;;;;;;;;;;;5073347;28;19909;-75
2023/01/15 02:06:14;;;;;;;;;;;;;;;;;;5073355;28;20323;-75
2023/01/15 02:08:40;;;;;;;;;;;;;;;;;;5073331;28;19909;-76
2023/01/15 02:11:06;;;;;;;;;;;;;;;;;;5073325;28;20360;-76
2023/01/15 02:13:32;;;;;;;;;;;;;;;;;;5073418;28;20384;-75
2023/01/15 02:15:58;;;;;;;;;;;;;;;;;;5073250;28;19908;-74
2023/01/15 02:18:24;;;;;;;;;;;;;;;;;;5073191;28;19908;-75
2023/01/15 02:20:50;;;;;;;;;;;;;;;;;;5073105;28;19970;-76
2023/01/15 02:23:16;;;;;;;;;;;;;;;;;;5073249;28;19909;-74
2023/01/15 02:25:42;;;;;;;;;;;;;;;;;;5073235;28;20330;-75
2023/01/15 02:28:08;;;;;;;;;;;;;;;;;;5073137;28;20375;-75
2023/01/15 02:30:34;;;;;;;;;;;;;;;;;;5075258;28;19915;-75
2023/01/15 02:32:59;;;;;;;;;;;;;;;;;;5077445;28;19908;-76
2023/01/15 02:35:25;;;;;;;;;;;;;;;;;;5076592;28;19920;-74
2023/01/15 02:37:51;;;;;;;;;;;;;;;;;;5076766;28;19912;-75
2023/01/15 02:40:17;;;;;;;;;;;;;;;;;;5076844;28;19996;-75
2023/01/15 02:42:43;;;;;;;;;;;;;;;;;;5076706;28;19940;-76
2023/01/15 02:45:09;;;;;;;;;;;;;;;;;;5076659;28;19909;-76
2023/01/15 02:47:35;;;;;;;;;;;;;;;;;;5075293;28;19912;-75
2023/01/15 02:50:01;;;;;;;;;;;;;;;;;;5076616;28;19908;-75
2023/01/15 02:52:27;;;;;;;;;;;;;;;;;;5076524;28;19916;-74
2023/01/15 02:54:53;;;;;;;;;;;;;;;;;;5076453;28;19916;-76
2023/01/15 02:57:19;;;;;;;;;;;;;;;;;;5076759;28;19909;-75
2023/01/15 02:59:45;;;;;;;;;;;;;;;;;;5076416;28;19908;-74
2023/01/15 03:02:11;;;;;;;;;;;;;;;;;;5076496;28;19913;-75
2023/01/15 03:04:37;;;;;;;;;;;;;;;;;;5076262;28;19915;-74
2023/01/15 03:07:03;;;;;;;;;;;;;;;;;;5076555;28;19908;-75
2023/01/15 03:09:29;;;;;;;;;;;;;;;;;;5076224;28;19908;-75
2023/01/15 03:11:55;;;;;;;;;;;;;;;;;;5076382;28;19908;-75
2023/01/15 03:14:21;;;;;;;;;;;;;;;;;;5076134;28;19915;-75
2023/01/15 03:16:47;;;;;;;;;;;;;;;;;;5076123;28;19908;-75
2023/01/15 03:19:13;;;;;;;;;;;;;;;;;;5076269;28;19998;-75
2023/01/15 03:21:39;;;;;;;;;;;;;;;;;;5075945;28;19912;-75
2023/01/15 03:24:05;;;;;;;;;;;;;;;;;;5075945;28;19931;-76
2023/01/15 03:26:31;;;;;;;;;;;;;;;;;;5075882;28;19908;-74
2023/01/15 03:28:57;;;;;;;;;;;;;;;;;;5075963;28;19913;-75
2023/01/15 03:31:23;;;;;;;;;;;;;;;;;;5075809;28;20003;-75
2023/01/15 03:33:49;;;;;;;;;;;;;;;;;;5074470;28;19909;-75
2023/01/15 03:36:14;;;;;;;;;;;;;;;;;;5075570;28;19994;-75
2023/01/15 03:38:41;;;;;;;;;;;;;;;;;;5075705;28;20266;-75
2023/01/15 03:41:07;;;;;;;;;;;;;;;;;;5075548;28;19913;-75
2023/01/15 03:43:42;;;;;;;;;;;;;;;;;;5075808;28;19909;-76
2023/01/15 03:46:08;;;;;;;;;;;;;;;;;;5075576;28;19916;-74
2023/01/15 03:48:34;;;;;;;;;;;;;;;;;;5075500;28;20366;-75
2023/01/15 03:51:00;;;;;;;;;;;;;;;;;;5075414;28;19974;-75
2023/01/15 03:53:25;;;;;;;;;;;;;;;;;;5075663;28;19954;-74
2023/01/15 03:55:52;;;;;;;;;;;;;;;;;;5074076;28;19913;-75
2023/01/15 03:58:18;;;;;;;;;;;;;;;;;;5075306;28;19915;-74
2023/01/15 04:00:44;;;;;;;;;;;;;;;;;;5075159;28;19913;-76
2023/01/15 04:03:10;;;;;;;;;;;;;;;;;;5075236;28;19947;-75
2023/01/15 04:05:36;;;;;;;;;;;;;;;;;;5075111;28;19909;-76
2023/01/15 04:08:02;;;;;;;;;;;;;;;;;;5075239;28;19921;-75
2023/01/15 04:10:28;;;;;;;;;;;;;;;;;;5073766;28;20377;-75
2023/01/15 04:12:54;;;;;;;;;;;;;;;;;;5074982;28;20353;-75
2023/01/15 04:15:20;;;;;;;;;;;;;;;;;;5074958;28;19908;-75
2023/01/15 04:17:46;;;;;;;;;;;;;;;;;;5075206;28;20354;-75
2023/01/15 04:20:12;;;;;;;;;;;;;;;;;;5074818;28;19912;-76
2023/01/15 04:22:37;;;;;;;;;;;;;;;;;;5074709;28;19963;-75
2023/01/15 04:25:03;;;;;;;;;;;;;;;;;;5074986;28;19909;-74
2023/01/15 04:27:29;;;;;;;;;;;;;;;;;;5074712;28;20327;-74
2023/01/15 04:29:55;;;;;;;;;;;;;;;;;;5074773;28;20269;-75
2023/01/15 04:32:21;;;;;;;;;;;;;;;;;;5074612;28;20327;-75
2023/01/15 04:34:47;;;;;;;;;;;;;;;;;;5074279;28;19995;-74
2023/01/15 04:37:13;;;;;;;;;;;;;;;;;;5074755;28;19969;-75
2023/01/15 04:39:39;;;;;;;;;;;;;;;;;;5074860;28;19915;-74
2023/01/15 04:44:49;;;;;;;;;;;;;;;;;;5074137;28;20288;-74
2023/01/15 04:47:15;;;;;;;;;;;;;;;;;;5074267;28;19908;-74
2023/01/15 04:49:41;;;;;;;;;;;;;;;;;;5074673;28;20007;-74
2023/01/15 04:52:07;;;;;;;;;;;;;;;;;;5073688;28;20273;-74
2023/01/15 04:54:33;;;;;;;;;;;;;;;;;;5074079;28;20376;-75
2023/01/15 04:56:59;;;;;;;;;;;;;;;;;;5074244;28;19916;-75
2023/01/15 04:59:25;;;;;;;;;;;;;;;;;;5074107;28;19909;-75
2023/01/15 05:01:51;;;;;;;;;;;;;;;;;;5074109;28;19919;-75
2023/01/15 05:04:17;;;;;;;;;;;;;;;;;;5074145;28;20003;-74
2023/01/15 05:06:43;;;;;;;;;;;;;;;;;;5074028;28;20288;-75
2023/01/15 05:09:09;;;;;;;;;;;;;;;;;;5074030;28;19995;-75
2023/01/15 05:11:35;;;;;;;;;;;;;;;;;;5073938;28;20418;-75
2023/01/15 05:14:01;;;;;;;;;;;;;;;;;;5074080;28;19966;-75
2023/01/15 05:16:28;;;;;;;;;;;;;;;;;;5074066;28;19909;-75
2023/01/15 05:18:54;;;;;;;;;;;;;;;;;;5072614;28;19951;-76
2023/01/15 05:21:20;;;;;;;;;;;;;;;;;;5073773;28;20311;-75
2023/01/15 05:23:46;;;;;;;;;;;;;;;;;;5072440;28;19908;-76
2023/01/15 05:26:12;;;;;;;;;;;;;;;;;;5073842;28;19912;-76
2023/01/15 05:28:38;;;;;;;;;;;;;;;;;;5073928;28;20383;-74
2023/01/15 05:31:04;;;;;;;;;;;;;;;;;;5072413;28;19931;-75
2023/01/15 05:33:30;;;;;;;;;;;;;;;;;;5073688;28;19995;-75
2023/01/15 05:35:56;;;;;;;;;;;;;;;;;;5073429;28;19962;-75
2023/01/15 05:38:21;;;;;;;;;;;;;;;;;;5073663;28;19912;-75
2023/01/15 05:40:47;;;;;;;;;;;;;;;;;;5073744;28;20434;-74
2023/01/15 05:43:13;;;;;;;;;;;;;;;;;;5073564;28;19962;-74
2023/01/15 05:45:39;;;;;;;;;;;;;;;;;;5073548;28;19909;-76
2023/01/15 05:48:05;;;;;;;;;;;;;;;;;;5073534;28;19909;-74
2023/01/15 05:50:31;;;;;;;;;;;;;;;;;;5073674;28;19913;-75
2023/01/15 05:52:57;;;;;;;;;;;;;;;;;;5073405;28;19916;-75
2023/01/15 05:55:23;;;;;;;;;;;;;;;;;;5073523;28;19909;-75
2023/01/15 05:57:49;;;;;;;;;;;;;;;;;;5073481;28;19908;-75
2023/01/15 06:00:15;;;;;;;;;;;;;;;;;;5073445;28;20293;-75
2023/01/15 06:02:41;;;;;;;;;;;;;;;;;;5073591;28;20288;-73
2023/01/15 06:05:07;;;;;;;;;;;;;;;;;;5075321;28;20323;-75
2023/01/15 06:07:33;;;;;;;;;;;;;;;;;;5077410;28;19954;-75
2023/01/15 06:09:59;;;;;;;;;;;;;;;;;;5077676;28;19908;-76
2023/01/15 06:12:25;;;;;;;;;;;;;;;;;;5077427;28;19965;-75
2023/01/15 06:14:51;;;;;;;;;;;;;;;;;;5077236;28;19974;-76
2023/01/15 06:17:16;;;;;;;;;;;;;;;;;;5077706;28;19908;-74
2023/01/15 06:19:42;;;;;;;;;;;;;;;;;;5077193;28;19908;-74
2023/01/15 06:22:08;;;;;;;;;;;;;;;;;;5077199;28;19912;-75
2023/01/15 06:24:34;;;;;;;;;;;;;;;;;;5077229;28;19958;-75
2023/01/15 06:27:00;;;;;;;;;;;;;;;;;;5077051;28;19908;-75
2023/01/15 06:29:26;;;;;;;;;;;;;;;;;;5076935;28;19915;-75
2023/01/15 06:31:52;;;;;;;;;;;;;;;;;;5076887;28;19920;-75
2023/01/15 06:34:18;;;;;;;;;;;;;;;;;;5077003;28;19909;-75
2023/01/15 06:36:44;;;;;;;;;;;;;;;;;;5076497;28;20299;-75
2023/01/15 06:39:10;;;;;;;;;;;;;;;;;;5076815;28;19908;-75
2023/01/15 06:47:20;;;;;;;;;;;;;;;;;;5076503;28;20050;-75
2023/01/15 06:49:46;;;;;;;;;;;;;;;;;;5076605;28;19909;-75
2023/01/15 06:52:12;;;;;;;;;;;;;;;;;;5076548;28;19920;-75
2023/01/15 06:54:38;;;;;;;;;;;;;;;;;;5076548;28;19915;-75
2023/01/15 06:57:04;;;;;;;;;;;;;;;;;;5076477;28;19999;-74
2023/01/15 06:59:30;;;;;;;;;;;;;;;;;;5075119;28;20380;-75
2023/01/15 07:01:56;;;;;;;;;;;;;;;;;;5076697;28;20001;-75
2023/01/15 07:04:22;;;;;;;;;;;;;;;;;;5076337;28;20304;-75
2023/01/15 07:06:48;;;;;;;;;;;;;;;;;;5076509;28;20276;-76
2023/01/15 07:09:14;;;;;;;;;;;;;;;;;;5076270;28;19973;-75
2023/01/15 07:11:48;;;;;;;;;;;;;;;;;;5076139;28;20262;-75
2023/01/15 07:14:14;;;;;;;;;;;;;;;;;;5076391;28;19909;-75
2023/01/15 07:16:40;;;;;;;;;;;;;;;;;;5075976;28;19909;-76
2023/01/15 07:19:05;;;;;;;;;;;;;;;;;;5076095;28;19908;-75
2023/01/15 07:21:31;;;;;;;;;;;;;;;;;;5076044;28;20011;-75
2023/01/15 07:23:57;;;;;;;;;;;;;;;;;;5076471;28;19908;-75
2023/01/15 07:26:23;;;;;;;;;;;;;;;;;;5075942;28;19915;-74
2023/01/15 07:28:49;;;;;;;;;;;;;;;;;;5076051;28;19910;-75
2023/01/15 07:31:15;;;;;;;;;;;;;;;;;;5075883;28;19909;-76
2023/01/15 07:33:41;;;;;;;;;;;;;;;;;;5075892;28;20288;-75
2023/01/15 07:36:07;;;;;;;;;;;;;;;;;;5075602;28;20390;-74
2023/01/15 07:38:33;;;;;;;;;;;;;;;;;;5075711;28;20361;-75
2023/01/15 07:51:57;;;;;;;;;;;;;;;;;;5075319;28;20054;-75
2023/01/15 07:54:23;;;;;;;;;;;;;;;;;;5075373;28;19970;-75
2023/01/15 07:56:49;;;;;;;;;;;;;;;;;;5075333;28;20327;-74
2023/01/15 07:59:15;;;;;;;;;;;;;;;;;;5075275;28;20284;-74
2023/01/15 08:01:41;;;;;;;;;;;;;;;;;;5075417;28;20388;-75
2023/01/15 08:04:08;;;;;;;;;;;;;;;;;;5075193;28;19915;-76
2023/01/15 08:06:34;;;;;;;;;;;;;;;;;;5075133;28;20357;-76
2023/01/15 08:09:00;;;;;;;;;;;;;;;;;;5075109;28;19915;-74
2023/01/15 08:16:55;;;;;;;;;;;;;;;;;;5074919;28;19958;-74
2023/01/15 08:19:23;;;;;;;;;;;;;;;;;;5074896;28;19912;-75
2023/01/15 08:21:49;;;;;;;;;;;;;;;;;;5075026;28;19919;-75
2023/01/15 08:24:15;;;;;;;;;;;;;;;;;;5074765;28;19995;-75
2023/01/15 08:26:41;;;;;;;;;;;;;;;;;;5074329;28;19908;-75
2023/01/15 08:29:07;;;;;;;;;;;;;;;;;;5074182;28;19916;-74
2023/01/15 08:31:33;;;;;;;;;;;;;;;;;;5074830;28;20288;-75
2023/01/15 08:33:59;;;;;;;;;;;;;;;;;;5074598;28;19991;-75
2023/01/15 08:36:25;;;;;;;;;;;;;;;;;;5074135;28;19927;-76
2023/01/15 08:38:51;;;;;;;;;;;;;;;;;;5075109;28;19916;-75
2023/01/15 08:41:17;;;;;;;;;;;;;;;;;;5074347;28;19912;-75
2023/01/15 08:43:44;;;;;;;;;;;;;;;;;;5074746;28;20050;-76
2023/01/15 08:46:10;;;;;;;;;;;;;;;;;;5074325;28;20357;-75
2023/01/15 08:48:36;;;;;;;;;;;;;;;;;;5074336;28;19915;-75
2023/01/15 08:51:02;;;;;;;;;;;;;;;;;;5074330;28;19912;-76
2023/01/15 08:53:28;;;;;;;;;;;;;;;;;;5074163;28;19951;-76
2023/01/15 08:55:54;;;;;;;;;;;;;;;;;;5074408;28;19909;-76
2023/01/15 08:58:20;;;;;;;;;;;;;;;;;;5074159;28;19916;-76
2023/01/15 09:00:47;;;;;;;;;;;;;;;;;;5074041;28;19957;-75
2023/01/15 09:03:14;;;;;;;;;;;;;;;;;;5073963;28;20349;-76
2023/01/15 09:05:39;;;;;;;;;;;;;;;;;;5074372;28;19965;-76
2023/01/15 09:08:05;;;;;;;;;;;;;;;;;;5074121;28;19908;-76
2023/01/15 09:10:31;;;;;;;;;;;;;;;;;;5072701;28;20005;-75
2023/01/15 09:12:57;;;;;;;;;;;;;;;;;;5073960;28;19916;-75
2023/01/15 09:15:23;;;;;;;;;;;;;;;;;;5074097;28;19915;-74
2023/01/15 09:17:49;;;;;;;;;;;;;;;;;;5073925;28;19908;-75
2023/01/15 09:20:15;;;;;;;;;;;;;;;;;;5074000;28;20292;-74
2023/01/15 09:22:42;;;;;;;;;;;;;;;;;;5073781;28;20394;-76
2023/01/15 09:25:08;;;;;;;;;;;;;;;;;;5074135;28;19909;-75
2023/01/15 09:27:34;;;;;;;;;;;;;;;;;;5073918;28;19908;-76
2023/01/15 09:30:00;;;;;;;;;;;;;;;;;;5073670;28;19909;-76
2023/01/15 09:32:26;;;;;;;;;;;;;;;;;;5073730;28;19996;-74
2023/01/15 09:34:52;;;;;;;;;;;;;;;;;;5073377;28;19934;-76
2023/01/15 09:37:18;;;;;;;;;;;;;;;;;;5074003;28;19912;-75
2023/01/15 09:39:44;;;;;;;;;;;;;;;;;;5073855;28;19915;-75
2023/01/15 09:42:13;;;;;;;;;;;;;;;;;;5073589;28;19978;-75
2023/01/15 09:44:39;;;;;;;;;;;;;;;;;;5073620;28;19999;-76
2023/01/15 09:47:05;;;;;;;;;;;;;;;;;;5073801;28;19951;-76
2023/01/15 09:49:31;;;;;;;;;;;;;;;;;;5073511;28;20050;-74
2023/01/15 09:51:57;;;;;;;;;;;;;;;;;;5073757;28;19915;-76
2023/01/15 09:54:23;;;;;;;;;;;;;;;;;;5073400;28;20292;-75
2023/01/15 09:56:49;;;;;;;;;;;;;;;;;;5073609;28;19909;-75
2023/01/15 09:59:16;;;;;;;;;;;;;;;;;;5073384;28;19909;-76
2023/01/15 10:01:42;;;;;;;;;;;;;;;;;;5073641;28;20273;-75
2023/01/15 10:04:08;;;;;;;;;;;;;;;;;;5071971;28;19914;-75
2023/01/15 10:06:34;;;;;;;;;;;;;;;;;;5073331;28;19954;-75
2023/01/15 10:09:00;;;;;;;;;;;;;;;;;;5073433;28;19915;-74
2023/01/15 10:12:33;;;;;;;;;;;;;;;;;;5073363;28;19908;-76
2023/01/15 10:14:11;;;;;;;;;;;;;;;;;;5073037;28;20015;-76
2023/01/15 10:16:37;;;;;;;;;;;;;;;;;;5073307;28;20357;-75
2023/01/15 10:19:03;;;;;;;;;;;;;;;;;;5073259;28;20355;-75
2023/01/15 10:21:29;;;;;;;;;;;;;;;;;;5073274;28;20021;-75
2023/01/15 10:23:55;;;;;;;;;;;;;;;;;;5073545;28;19908;-76
2023/01/15 10:26:21;;;;;;;;;;;;;;;;;;5072521;28;20491;-76
2023/01/15 10:28:47;;;;;;;;;;;;;;;;;;5073424;28;19942;-76
2023/01/15 10:31:14;;;;;;;;;;;;;;;;;;5073116;28;19916;-76
2023/01/15 10:33:40;;;;;;;;;;;;;;;;;;5073085;28;19916;-75
2023/01/15 10:36:06;;;;;;;;;;;;;;;;;;5072932;28;19920;-75
2023/01/15 10:38:32;;;;;;;;;;;;;;;;;;5073225;28;20006;-75
2023/01/15 10:40:58;;;;;;;;;;;;;;;;;;5072975;28;19916;-75
2023/01/15 10:43:24;;;;;;;;;;;;;;;;;;5073127;28;19914;-75
2023/01/15 10:45:50;;;;;;;;;;;;;;;;;;5073046;28;19908;-75
2023/01/15 10:48:16;;;;;;;;;;;;;;;;;;5073057;28;19959;-74
2023/01/15 10:50:42;;;;;;;;;;;;;;;;;;5073942;28;19958;-75
2023/01/15 10:53:08;;;;;;;;;;;;;;;;;;5076452;28;19913;-75
2023/01/15 10:55:34;;;;;;;;;;;;;;;;;;5076540;28;20372;-75
2023/01/15 10:58:01;;;;;;;;;;;;;;;;;;5076626;28;19962;-76
2023/01/15 11:00:27;;;;;;;;;;;;;;;;;;5076443;28;19908;-77
2023/01/15 11:02:52;;;;;;;;;;;;;;;;;;5076309;28;19923;-75
2023/01/15 11:05:18;;;;;;;;;;;;;;;;;;5076420;28;19915;-76
2023/01/15 11:07:45;;;;;;;;;;;;;;;;;;5076285;28;19908;-76
2023/01/15 11:10:16;;;;;;;;;;;;;;;;;;5076311;28;20365;-76
2023/01/15 11:20:56;;;;;;;;;;;;;;;;;;5075692;28;20312;-76
2023/01/15 11:23:22;;;;;;;;;;;;;;;;;;5075972;28;19908;-76
2023/01/15 11:25:48;;;;;;;;;;;;;;;;;;5076242;28;19930;-76
2023/01/15 11:28:14;;;;;;;;;;;;;;;;;;5076007;28;19908;-75
2023/01/15 11:30:40;;;;;;;;;;;;;;;;;;5075889;28;19908;-76
2023/01/15 11:33:06;;;;;;;;;;;;;;;;;;5075853;28;19975;-76
2023/01/15 11:35:32;;;;;;;;;;;;;;;;;;5075551;28;20431;-77
2023/01/15 11:37:58;;;;;;;;;;;;;;;;;;5075797;28;19913;-76
2023/01/15 11:40:24;;;;;;;;;;;;;;;;;;5075779;28;19948;-77
2023/01/15 11:51:04;;;;;;;;;;;;;;;;;;5075223;28;19958;-74
2023/01/15 11:53:30;;;;;;;;;;;;;;;;;;5075340;28;19945;-76
2023/01/15 11:55:58;;;;;;;;;;;;;;;;;;5075659;28;19915;-75
2023/01/15 11:58:25;;;;;;;;;;;;;;;;;;5075518;28;20279;-76
2023/01/15 12:00:53;;;;;;;;;;;;;;;;;;5075420;28;19913;-75
2023/01/15 12:03:19;;;;;;;;;;;;;;;;;;5075084;28;19915;-76
2023/01/15 12:05:45;;;;;;;;;;;;;;;;;;5075165;28;19909;-75
2023/01/15 12:08:10;;;;;;;;;;;;;;;;;;5075362;28;19908;-75
2023/01/15 12:13:21;;;;;;;;;;;;;;;;;;5074849;28;19977;-76
2023/01/15 12:15:53;;;;;;;;;;;;;;;;;;5075101;28;20361;-77
2023/01/15 12:18:19;;;;;;;;;;;;;;;;;;5073416;28;20368;-77
2023/01/15 12:20:45;;;;;;;;;;;;;;;;;;5075216;28;19915;-75
2023/01/15 12:23:11;;;;;;;;;;;;;;;;;;5074839;28;19908;-76
2023/01/15 12:25:37;;;;;;;;;;;;;;;;;;5074990;28;20057;-77
2023/01/15 12:28:03;;;;;;;;;;;;;;;;;;5074723;28;19963;-75
2023/01/15 12:30:29;;;;;;;;;;;;;;;;;;5074924;28;19912;-76
2023/01/15 12:32:55;;;;;;;;;;;;;;;;;;5074713;28;19914;-76
2023/01/15 12:35:21;;;;;;;;;;;;;;;;;;5074368;28;19921;-76
2023/01/15 12:37:47;;;;;;;;;;;;;;;;;;5074864;28;19930;-77
2023/01/15 12:40:13;;;;;;;;;;;;;;;;;;5074492;28;19912;-77
2023/01/15 12:45:23;;;;;;;;;;;;;;;;;;5074161;28;19931;-77
2023/01/15 12:47:49;;;;;;;;;;;;;;;;;;5072828;28;20360;-77
2023/01/15 12:50:15;;;;;;;;;;;;;;;;;;5074315;28;19943;-76
2023/01/15 12:52:41;;;;;;;;;;;;;;;;;;5074412;28;19912;-75
2023/01/15 12:55:07;;;;;;;;;;;;;;;;;;5074144;28;19909;-76
2023/01/15 12:57:33;;;;;;;;;;;;;;;;;;5072925;28;19935;-75
2023/01/15 12:59:59;;;;;;;;;;;;;;;;;;5074634;28;19974;-76
2023/01/15 13:02:25;;;;;;;;;;;;;;;;;;5074095;28;19913;-75
2023/01/15 13:04:51;;;;;;;;;;;;;;;;;;5074125;28;20487;-75
2023/01/15 13:07:17;;;;;;;;;;;;;;;;;;5074076;28;19951;-75
2023/01/15 13:09:43;;;;;;;;;;;;;;;;;;5073979;28;19916;-74
2023/01/15 13:12:09;;;;;;;;;;;;;;;;;;5074157;28;19997;-76
2023/01/15 13:14:34;;;;;;;;;;;;;;;;;;5073473;28;19909;-76
2023/01/15 13:17:00;;;;;;;;;;;;;;;;;;5074044;28;20331;-75
2023/01/15 13:19:26;;;;;;;;;;;;;;;;;;5073894;28;20364;-76
2023/01/15 13:21:53;;;;;;;;;;;;;;;;;;5073775;28;19916;-75
2023/01/15 13:24:19;;;;;;;;;;;;;;;;;;5073985;28;19912;-75
2023/01/15 13:26:45;;;;;;;;;;;;;;;;;;5073743;28;20257;-76
2023/01/15 13:29:11;;;;;;;;;;;;;;;;;;5073833;28;19909;-76
2023/01/15 13:31:37;;;;;;;;;;;;;;;;;;5073672;28;19954;-75
2023/01/15 13:34:03;;;;;;;;;;;;;;;;;;5073913;28;20063;-75
2023/01/15 13:36:29;;;;;;;;;;;;;;;;;;5073498;28;19920;-75
2023/01/15 13:38:55;;;;;;;;;;;;;;;;;;5073697;28;19908;-77
2023/01/15 13:44:06;;;;;;;;;;;;;;;;;;5072887;28;20450;-75
2023/01/15 13:46:32;;;;;;;;;;;;;;;;;;5072264;28;19909;-76
2023/01/15 13:48:58;;;;;;;;;;;;;;;;;;5072397;28;19962;-75
2023/01/15 13:51:24;;;;;;;;;;;;;;;;;;5073543;28;19958;-75
2023/01/15 13:53:50;;;;;;;;;;;;;;;;;;5073693;28;19913;-75
2023/01/15 13:56:16;;;;;;;;;;;;;;;;;;5073536;28;20331;-76
2023/01/15 13:58:42;;;;;;;;;;;;;;;;;;5073548;28;20015;-75
2023/01/15 14:01:08;;;;;;;;;;;;;;;;;;5071564;28;19920;-75
2023/01/15 14:03:35;;;;;;;;;;;;;;;;;;5071520;28;20000;-75
2023/01/15 14:06:00;;;;;;;;;;;;;;;;;;5071586;28;19959;-75
2023/01/15 14:08:27;;;;;;;;;;;;;;;;;;5071567;28;20329;-74
2023/01/15 14:10:56;;;;;;;;;;;;;;;;;;5071499;28;19912;-76
2023/01/15 14:13:22;;;;;;;;;;;;;;;;;;5072025;28;19908;-75
2023/01/15 14:15:48;;;;;;;;;;;;;;;;;;5072888;28;19908;-74
2023/01/15 14:18:14;;;;;;;;;;;;;;;;;;5073328;28;19948;-74
2023/01/15 14:20:40;;;;;;;;;;;;;;;;;;5073188;28;19909;-74
2023/01/15 14:23:06;;;;;;;;;;;;;;;;;;5073222;28;19908;-74
2023/01/15 14:25:32;;;;;;;;;;;;;;;;;;5073937;28;19909;-74
2023/01/15 14:27:58;;;;;;;;;;;;;;;;;;5077030;28;19908;-74
2023/01/15 14:30:25;;;;;;;;;;;;;;;;;;5077246;28;19908;-75
2023/01/15 14:32:51;;;;;;;;;;;;;;;;;;5077267;28;19908;-75
2023/01/15 14:35:17;;;;;;;;;;;;;;;;;;5076741;28;19920;-74
2023/01/15 14:37:43;;;;;;;;;;;;;;;;;;5076853;28;19908;-75
2023/01/15 14:40:09;;;;;;;;;;;;;;;;;;5076811;28;20379;-75
2023/01/15 14:45:19;;;;;;;;;;;;;;;;;;5076458;28;19962;-74
2023/01/15 14:47:45;;;;;;;;;;;;;;;;;;5076674;28;19909;-75
2023/01/15 14:50:11;;;;;;;;;;;;;;;;;;5077032;28;19999;-75
2023/01/15 14:52:37;;;;;;;;;;;;;;;;;;5076582;28;20281;-75
2023/01/15 14:55:03;;;;;;;;;;;;;;;;;;5075232;28;20375;-75
2023/01/15 14:57:29;;;;;;;;;;;;;;;;;;5076510;28;19941;-75
2023/01/15 14:59:55;;;;;;;;;;;;;;;;;;5076488;28;20035;-74
2023/01/15 15:02:21;;;;;;;;;;;;;;;;;;5076263;28;19959;-75
2023/01/15 15:04:52;;;;;;;;;;;;;;;;;;5076702;28;19916;-76
2023/01/15 15:07:19;;;;;;;;;;;;;;;;;;5075072;28;19909;-75
2023/01/15 15:09:45;;;;;;;;;;;;;;;;;;5076282;28;19908;-76
2023/01/15 15:12:20;;;;;;;;;;;;;;;;;;5076229;28;19916;-76
2023/01/15 15:14:46;;;;;;;;;;;;;;;;;;5076181;28;19909;-74
2023/01/15 15:17:12;;;;;;;;;;;;;;;;;;5076125;28;19908;-74
2023/01/15 15:19:38;;;;;;;;;;;;;;;;;;5076144;28;19909;-76
2023/01/15 15:22:04;;;;;;;;;;;;;;;;;;5075977;28;19920;-76
2023/01/15 15:24:30;;;;;;;;;;;;;;;;;;5076146;28;19915;-76
2023/01/15 15:26:56;;;;;;;;;;;;;;;;;;5075923;28;19915;-75
2023/01/15 15:29:22;;;;;;;;;;;;;;;;;;5075868;28;19909;-75
2023/01/15 15:31:48;;;;;;;;;;;;;;;;;;5075880;28;19908;-75
2023/01/15 15:34:14;;;;;;;;;;;;;;;;;;5075819;28;19909;-74
2023/01/15 15:36:40;;;;;;;;;;;;;;;;;;5074907;28;19927;-75
2023/01/15 15:39:06;;;;;;;;;;;;;;;;;;5075824;28;19963;-75
2023/01/15 15:49:46;;;;;;;;;;;;;;;;;;5075342;28;20412;-74
2023/01/15 15:52:12;;;;;;;;;;;;;;;;;;5075499;28;19909;-75
2023/01/15 15:54:38;;;;;;;;;;;;;;;;;;5075600;28;19916;-75
2023/01/15 15:57:07;;;;;;;;;;;;;;;;;;5075449;28;19908;-75
2023/01/15 15:59:34;;;;;;;;;;;;;;;;;;5075410;28;19935;-74
2023/01/15 16:02:00;;;;;;;;;;;;;;;;;;5075727;28;19955;-75
2023/01/15 16:04:26;;;;;;;;;;;;;;;;;;5075236;28;19916;-75
2023/01/15 16:06:52;;;;;;;;;;;;;;;;;;5075420;28;19915;-75
2023/01/15 16:09:18;;;;;;;;;;;;;;;;;;5075182;28;19908;-75
2023/01/15 16:11:44;;;;;;;;;;;;;;;;;;5073648;28;20007;-75
2023/01/15 16:14:11;;;;;;;;;;;;;;;;;;5075402;28;19916;-74
2023/01/15 16:16:37;;;;;;;;;;;;;;;;;;5074988;28;19999;-75
2023/01/15 16:19:03;;;;;;;;;;;;;;;;;;5074934;28;20054;-75
2023/01/15 16:21:29;;;;;;;;;;;;;;;;;;5075080;28;20379;-76
2023/01/15 16:23:55;;;;;;;;;;;;;;;;;;5073570;28;19909;-74
2023/01/15 16:26:21;;;;;;;;;;;;;;;;;;5075049;28;19915;-74
2023/01/15 16:28:49;;;;;;;;;;;;;;;;;;5074739;28;19956;-74
2023/01/15 16:31:15;;;;;;;;;;;;;;;;;;5074704;28;19914;-75
2023/01/15 16:33:41;;;;;;;;;;;;;;;;;;5074664;28;19991;-76
2023/01/15 16:36:07;;;;;;;;;;;;;;;;;;5074382;28;20356;-75
2023/01/15 16:38:33;;;;;;;;;;;;;;;;;;5074562;28;20292;-75
2023/01/15 16:40:59;;;;;;;;;;;;;;;;;;5073119;28;20384;-74
2023/01/15 16:43:27;;;;;;;;;;;;;;;;;;5074068;28;20301;-75
2023/01/15 16:45:53;;;;;;;;;;;;;;;;;;5074439;28;19995;-74
2023/01/15 16:48:21;;;;;;;;;;;;;;;;;;5073779;28;19947;-75
2023/01/15 16:50:47;;;;;;;;;;;;;;;;;;5074497;28;19908;-74
2023/01/15 16:53:13;;;;;;;;;;;;;;;;;;5074216;28;20364;-75
2023/01/15 16:55:39;;;;;;;;;;;;;;;;;;5074287;28;19909;-75
2023/01/15 16:58:05;;;;;;;;;;;;;;;;;;5074185;28;19959;-73
2023/01/15 17:00:32;;;;;;;;;;;;;;;;;;5074182;28;20383;-73
2023/01/15 17:02:57;;;;;;;;;;;;;;;;;;5074120;28;19912;-74
2023/01/15 17:05:23;;;;;;;;;;;;;;;;;;5074308;28;19908;-75
2023/01/15 17:07:49;;;;;;;;;;;;;;;;;;5074058;28;19908;-75
2023/01/15 17:10:15;;;;;;;;;;;;;;;;;;5074284;28;19912;-75
2023/01/15 17:12:41;;;;;;;;;;;;;;;;;;5073971;28;20387;-75
2023/01/15 17:15:07;;;;;;;;;;;;;;;;;;5074014;28;19955;-74
2023/01/15 17:17:33;;;;;;;;;;;;;;;;;;5073909;28;19912;-75
2023/01/15 17:19:59;;;;;;;;;;;;;;;;;;5073842;28;19963;-74
2023/01/15 17:22:25;;;;;;;;;;;;;;;;;;5073880;28;19912;-74
2023/01/15 17:24:51;;;;;;;;;;;;;;;;;;5073876;28;19908;-76
2023/01/15 17:27:17;;;;;;;;;;;;;;;;;;5073785;28;19908;-74
2023/01/15 17:29:43;;;;;;;;;;;;;;;;;;5074080;28;19912;-75
2023/01/15 17:32:09;;;;;;;;;;;;;;;;;;5073749;28;19999;-74
2023/01/15 17:34:35;;;;;;;;;;;;;;;;;;5073840;28;19908;-74
2023/01/15 17:37:01;;;;;;;;;;;;;;;;;;5073191;28;19921;-75
2023/01/15 17:39:27;;;;;;;;;;;;;;;;;;5073700;28;19915;-73
2023/01/15 17:41:53;;;;;;;;;;;;;;;;;;5073666;28;19916;-75
2023/01/15 17:44:18;;;;;;;;;;;;;;;;;;5073662;28;19944;-75